sensor_id;sensor_type;location;lat;lon;timestamp;temperature;humidity
20929;DHT22;21895;47.072;15.132;2024-01-10T00:01:02;0.90;93.30
20929;DHT22;21895;47.072;15.132;2024-01-10T00:03:29;0.90;93.70
20929;DHT22;21895;47.072;15.132;2024-01-10T00:05:56;0.90;93.60
20929;DHT22;21895;47.072;15.132;2024-01-10T00:08:22;0.90;94.30
20929;DHT22;21895;47.072;15.132;2024-01-10T00:10:49;1.00;93.90
20929;DHT22;21895;47.072;15.132;2024-01-10T00:13:16;1.00;93.60
20929;DHT22;21895;47.072;15.132;2024-01-10T00:15:43;1.00;94.40
20929;DHT22;21895;47.072;15.132;2024-01-10T00:18:09;0.90;94.30
20929;DHT22;21895;47.072;15.132;2024-01-10T00:20:36;0.80;94.00
20929;DHT22;21895;47.072;15.132;2024-01-10T00:23:03;0.80;94.30
20929;DHT22;21895;47.072;15.132;2024-01-10T00:25:30;0.70;94.00
20929;DHT22;21895;47.072;15.132;2024-01-10T00:27:56;0.70;94.60
20929;DHT22;21895;47.072;15.132;2024-01-10T00:30:23;0.80;93.50
20929;DHT22;21895;47.072;15.132;2024-01-10T00:32:50;0.80;93.90
20929;DHT22;21895;47.072;15.132;2024-01-10T00:35:17;0.70;93.30
20929;DHT22;21895;47.072;15.132;2024-01-10T00:37:44;0.70;92.90
20929;DHT22;21895;47.072;15.132;2024-01-10T00:40:11;0.70;93.50
20929;DHT22;21895;47.072;15.132;2024-01-10T00:42:37;0.70;93.60
20929;DHT22;21895;47.072;15.132;2024-01-10T00:45:05;0.70;92.30
20929;DHT22;21895;47.072;15.132;2024-01-10T00:47:31;0.70;92.20
20929;DHT22;21895;47.072;15.132;2024-01-10T00:49:58;0.60;91.40
20929;DHT22;21895;47.072;15.132;2024-01-10T00:52:25;0.70;92.50
20929;DHT22;21895;47.072;15.132;2024-01-10T00:54:51;0.60;93.20
20929;DHT22;21895;47.072;15.132;2024-01-10T00:57:18;0.70;94.00
20929;DHT22;21895;47.072;15.132;2024-01-10T00:59:44;0.70;94.10
20929;DHT22;21895;47.072;15.132;2024-01-10T01:02:11;0.70;94.10
20929;DHT22;21895;47.072;15.132;2024-01-10T01:04:37;0.70;94.60
20929;DHT22;21895;47.072;15.132;2024-01-10T01:07:04;0.70;93.40
20929;DHT22;21895;47.072;15.132;2024-01-10T01:09:31;0.80;94.60
20929;DHT22;21895;47.072;15.132;2024-01-10T01:11:57;0.90;95.30
20929;DHT22;21895;47.072;15.132;2024-01-10T01:14:24;0.90;96.20
20929;DHT22;21895;47.072;15.132;2024-01-10T01:16:51;0.80;95.60
20929;DHT22;21895;47.072;15.132;2024-01-10T01:19:17;0.70;95.00
20929;DHT22;21895;47.072;15.132;2024-01-10T01:21:44;0.60;95.10
20929;DHT22;21895;47.072;15.132;2024-01-10T01:24:11;0.70;95.60
20929;DHT22;21895;47.072;15.132;2024-01-10T01:26:37;0.70;95.10
20929;DHT22;21895;47.072;15.132;2024-01-10T01:29:04;0.60;94.50
20929;DHT22;21895;47.072;15.132;2024-01-10T01:31:31;0.70;94.50
20929;DHT22;21895;47.072;15.132;2024-01-10T01:33:58;0.60;95.30
20929;DHT22;21895;47.072;15.132;2024-01-10T01:36:24;0.60;95.20
20929;DHT22;21895;47.072;15.132;2024-01-10T01:38:51;0.60;95.70
20929;DHT22;21895;47.072;15.132;2024-01-10T01:41:18;0.70;96.50
20929;DHT22;21895;47.072;15.132;2024-01-10T01:43:45;0.60;96.90
20929;DHT22;21895;47.072;15.132;2024-01-10T01:46:12;0.60;96.40
20929;DHT22;21895;47.072;15.132;2024-01-10T01:48:38;0.60;96.90
20929;DHT22;21895;47.072;15.132;2024-01-10T01:51:07;0.60;95.70
20929;DHT22;21895;47.072;15.132;2024-01-10T01:53:34;0.60;95.20
20929;DHT22;21895;47.072;15.132;2024-01-10T01:56:06;0.60;94.60
20929;DHT22;21895;47.072;15.132;2024-01-10T01:58:40;0.50;95.60
20929;DHT22;21895;47.072;15.132;2024-01-10T02:01:07;0.50;96.20
20929;DHT22;21895;47.072;15.132;2024-01-10T02:03:34;0.40;97.10
20929;DHT22;21895;47.072;15.132;2024-01-10T02:06:01;0.40;97.00
20929;DHT22;21895;47.072;15.132;2024-01-10T02:08:33;0.40;96.90
20929;DHT22;21895;47.072;15.132;2024-01-10T02:11:01;0.40;96.40
20929;DHT22;21895;47.072;15.132;2024-01-10T02:13:29;0.40;96.50
20929;DHT22;21895;47.072;15.132;2024-01-10T02:15:58;0.30;98.50
20929;DHT22;21895;47.072;15.132;2024-01-10T02:18:25;0.30;99.70
20929;DHT22;21895;47.072;15.132;2024-01-10T02:20:52;0.20;99.90
20929;DHT22;21895;47.072;15.132;2024-01-10T02:23:18;0.20;99.90
20929;DHT22;21895;47.072;15.132;2024-01-10T02:25:45;0.10;98.20
20929;DHT22;21895;47.072;15.132;2024-01-10T02:28:12;0.00;98.10
20929;DHT22;21895;47.072;15.132;2024-01-10T02:30:39;0.00;97.20
20929;DHT22;21895;47.072;15.132;2024-01-10T02:33:05;0.00;97.50
20929;DHT22;21895;47.072;15.132;2024-01-10T02:35:32;-0.10;98.30
20929;DHT22;21895;47.072;15.132;2024-01-10T02:37:59;-0.10;98.00
20929;DHT22;21895;47.072;15.132;2024-01-10T02:40:26;-0.20;99.20
20929;DHT22;21895;47.072;15.132;2024-01-10T02:42:52;-0.20;99.60
20929;DHT22;21895;47.072;15.132;2024-01-10T02:45:19;-0.30;99.80
20929;DHT22;21895;47.072;15.132;2024-01-10T02:47:46;-0.50;99.90
20929;DHT22;21895;47.072;15.132;2024-01-10T02:50:13;-0.50;99.90
20929;DHT22;21895;47.072;15.132;2024-01-10T02:52:39;-0.60;99.90
20929;DHT22;21895;47.072;15.132;2024-01-10T02:55:06;-0.50;99.90
20929;DHT22;21895;47.072;15.132;2024-01-10T02:57:33;-0.60;99.90
20929;DHT22;21895;47.072;15.132;2024-01-10T03:00:00;-0.60;99.90
20929;DHT22;21895;47.072;15.132;2024-01-10T03:02:26;-0.70;99.90
20929;DHT22;21895;47.072;15.132;2024-01-10T03:04:53;-0.70;99.90
20929;DHT22;21895;47.072;15.132;2024-01-10T03:07:20;-0.70;99.90
20929;DHT22;21895;47.072;15.132;2024-01-10T03:09:46;-1.00;99.90
20929;DHT22;21895;47.072;15.132;2024-01-10T03:12:13;-1.30;99.90
20929;DHT22;21895;47.072;15.132;2024-01-10T03:14:40;-1.40;99.90
20929;DHT22;21895;47.072;15.132;2024-01-10T03:17:06;-1.50;99.90
20929;DHT22;21895;47.072;15.132;2024-01-10T03:19:33;-1.60;99.90
20929;DHT22;21895;47.072;15.132;2024-01-10T03:21:59;-1.50;99.90
20929;DHT22;21895;47.072;15.132;2024-01-10T03:24:26;-1.50;99.90
20929;DHT22;21895;47.072;15.132;2024-01-10T03:26:53;-1.40;99.90
20929;DHT22;21895;47.072;15.132;2024-01-10T03:29:19;-1.40;99.90
20929;DHT22;21895;47.072;15.132;2024-01-10T03:31:46;-1.40;99.90
20929;DHT22;21895;47.072;15.132;2024-01-10T03:34:13;-1.40;99.90
20929;DHT22;21895;47.072;15.132;2024-01-10T03:36:40;-1.40;99.90
20929;DHT22;21895;47.072;15.132;2024-01-10T03:39:06;-1.50;99.90
20929;DHT22;21895;47.072;15.132;2024-01-10T03:41:33;-1.60;99.90
20929;DHT22;21895;47.072;15.132;2024-01-10T03:43:59;-1.80;99.90
20929;DHT22;21895;47.072;15.132;2024-01-10T03:46:26;-1.90;99.90
20929;DHT22;21895;47.072;15.132;2024-01-10T03:48:53;-2.00;99.90
20929;DHT22;21895;47.072;15.132;2024-01-10T03:51:20;-2.00;99.90
20929;DHT22;21895;47.072;15.132;2024-01-10T03:53:47;-2.20;99.90
20929;DHT22;21895;47.072;15.132;2024-01-10T03:56:15;-2.20;99.90
20929;DHT22;21895;47.072;15.132;2024-01-10T03:58:42;-2.30;99.90
20929;DHT22;21895;47.072;15.132;2024-01-10T04:01:09;-2.30;99.90
20929;DHT22;21895;47.072;15.132;2024-01-10T04:03:36;-2.40;99.90
20929;DHT22;21895;47.072;15.132;2024-01-10T04:06:03;-2.40;99.90
20929;DHT22;21895;47.072;15.132;2024-01-10T04:08:30;-2.40;99.90
20929;DHT22;21895;47.072;15.132;2024-01-10T04:10:57;-2.40;99.90
20929;DHT22;21895;47.072;15.132;2024-01-10T04:13:24;-2.30;99.90
20929;DHT22;21895;47.072;15.132;2024-01-10T04:15:52;-2.40;99.90
20929;DHT22;21895;47.072;15.132;2024-01-10T04:18:21;-2.40;99.90
20929;DHT22;21895;47.072;15.132;2024-01-10T04:20:49;-2.40;99.90
20929;DHT22;21895;47.072;15.132;2024-01-10T04:23:16;-2.60;99.90
20929;DHT22;21895;47.072;15.132;2024-01-10T04:25:42;-2.60;99.90
20929;DHT22;21895;47.072;15.132;2024-01-10T04:28:09;-2.60;99.90
20929;DHT22;21895;47.072;15.132;2024-01-10T04:30:36;-2.60;99.90
20929;DHT22;21895;47.072;15.132;2024-01-10T04:33:02;-2.60;99.90
20929;DHT22;21895;47.072;15.132;2024-01-10T04:35:29;-2.70;99.90
20929;DHT22;21895;47.072;15.132;2024-01-10T04:37:56;-2.70;99.90
20929;DHT22;21895;47.072;15.132;2024-01-10T04:40:23;-2.70;99.90
20929;DHT22;21895;47.072;15.132;2024-01-10T04:42:49;-2.70;99.90
20929;DHT22;21895;47.072;15.132;2024-01-10T04:45:19;-2.80;99.90
20929;DHT22;21895;47.072;15.132;2024-01-10T04:47:46;-2.90;99.90
20929;DHT22;21895;47.072;15.132;2024-01-10T04:50:12;-3.00;99.90
20929;DHT22;21895;47.072;15.132;2024-01-10T04:52:40;-3.10;99.90
20929;DHT22;21895;47.072;15.132;2024-01-10T04:55:07;-3.30;99.90
20929;DHT22;21895;47.072;15.132;2024-01-10T04:57:34;-3.40;99.90
20929;DHT22;21895;47.072;15.132;2024-01-10T05:00:01;-3.30;99.90
20929;DHT22;21895;47.072;15.132;2024-01-10T05:02:29;-3.30;99.90
20929;DHT22;21895;47.072;15.132;2024-01-10T05:04:55;-3.20;99.90
20929;DHT22;21895;47.072;15.132;2024-01-10T05:07:22;-3.10;99.90
20929;DHT22;21895;47.072;15.132;2024-01-10T05:09:49;-3.00;99.90
20929;DHT22;21895;47.072;15.132;2024-01-10T05:12:15;-3.00;99.90
20929;DHT22;21895;47.072;15.132;2024-01-10T05:14:42;-3.10;99.90
20929;DHT22;21895;47.072;15.132;2024-01-10T05:17:09;-3.20;99.90
20929;DHT22;21895;47.072;15.132;2024-01-10T05:19:35;-3.30;99.90
20929;DHT22;21895;47.072;15.132;2024-01-10T05:22:02;-3.50;99.90
20929;DHT22;21895;47.072;15.132;2024-01-10T05:24:30;-3.40;99.90
20929;DHT22;21895;47.072;15.132;2024-01-10T05:26:57;-3.40;99.90
20929;DHT22;21895;47.072;15.132;2024-01-10T05:29:23;-3.30;99.90
20929;DHT22;21895;47.072;15.132;2024-01-10T05:31:51;-3.40;99.90
20929;DHT22;21895;47.072;15.132;2024-01-10T05:34:21;-3.40;99.90
20929;DHT22;21895;47.072;15.132;2024-01-10T05:36:47;-3.20;99.90
20929;DHT22;21895;47.072;15.132;2024-01-10T05:39:15;-3.20;99.90
20929;DHT22;21895;47.072;15.132;2024-01-10T05:41:42;-3.00;99.90
20929;DHT22;21895;47.072;15.132;2024-01-10T05:44:12;-3.20;99.90
20929;DHT22;21895;47.072;15.132;2024-01-10T05:46:38;-3.40;99.90
20929;DHT22;21895;47.072;15.132;2024-01-10T05:49:05;-3.50;99.90
20929;DHT22;21895;47.072;15.132;2024-01-10T05:51:33;-3.50;99.90
20929;DHT22;21895;47.072;15.132;2024-01-10T05:53:59;-3.50;99.90
20929;DHT22;21895;47.072;15.132;2024-01-10T05:56:26;-3.40;99.90
20929;DHT22;21895;47.072;15.132;2024-01-10T05:58:53;-3.50;99.90
20929;DHT22;21895;47.072;15.132;2024-01-10T06:01:20;-3.60;99.90
20929;DHT22;21895;47.072;15.132;2024-01-10T06:03:46;-3.80;99.90
20929;DHT22;21895;47.072;15.132;2024-01-10T06:06:13;-3.90;99.90
20929;DHT22;21895;47.072;15.132;2024-01-10T06:08:39;-3.80;99.90
20929;DHT22;21895;47.072;15.132;2024-01-10T06:11:06;-3.80;99.90
20929;DHT22;21895;47.072;15.132;2024-01-10T06:13:36;-3.90;99.90
20929;DHT22;21895;47.072;15.132;2024-01-10T06:16:19;-3.80;99.90
20929;DHT22;21895;47.072;15.132;2024-01-10T06:18:46;-3.80;99.90
20929;DHT22;21895;47.072;15.132;2024-01-10T06:21:12;-3.90;99.90
20929;DHT22;21895;47.072;15.132;2024-01-10T06:23:39;-4.00;99.90
20929;DHT22;21895;47.072;15.132;2024-01-10T06:26:06;-4.10;99.90
20929;DHT22;21895;47.072;15.132;2024-01-10T06:28:33;-4.20;99.90
20929;DHT22;21895;47.072;15.132;2024-01-10T06:30:59;-4.10;99.90
20929;DHT22;21895;47.072;15.132;2024-01-10T06:33:26;-4.10;99.90
20929;DHT22;21895;47.072;15.132;2024-01-10T06:35:53;-4.10;99.90
20929;DHT22;21895;47.072;15.132;2024-01-10T06:38:20;-4.00;99.90
20929;DHT22;21895;47.072;15.132;2024-01-10T06:40:48;-3.80;99.90
20929;DHT22;21895;47.072;15.132;2024-01-10T06:43:16;-3.80;99.90
20929;DHT22;21895;47.072;15.132;2024-01-10T06:45:43;-3.70;99.90
20929;DHT22;21895;47.072;15.132;2024-01-10T06:48:09;-3.80;99.90
20929;DHT22;21895;47.072;15.132;2024-01-10T06:50:38;-4.10;99.90
20929;DHT22;21895;47.072;15.132;2024-01-10T06:53:05;-4.10;99.90
20929;DHT22;21895;47.072;15.132;2024-01-10T06:55:31;-4.20;99.90
20929;DHT22;21895;47.072;15.132;2024-01-10T06:57:58;-4.20;99.90
20929;DHT22;21895;47.072;15.132;2024-01-10T07:00:25;-4.30;99.90
20929;DHT22;21895;47.072;15.132;2024-01-10T07:02:52;-4.20;99.90
20929;DHT22;21895;47.072;15.132;2024-01-10T07:05:19;-4.30;99.90
20929;DHT22;21895;47.072;15.132;2024-01-10T07:07:46;-4.30;99.90
20929;DHT22;21895;47.072;15.132;2024-01-10T07:10:12;-4.20;99.90
20929;DHT22;21895;47.072;15.132;2024-01-10T07:12:39;-4.20;99.90
20929;DHT22;21895;47.072;15.132;2024-01-10T07:15:08;-4.00;99.90
20929;DHT22;21895;47.072;15.132;2024-01-10T07:17:35;-3.90;99.90
20929;DHT22;21895;47.072;15.132;2024-01-10T07:20:02;-3.80;99.90
20929;DHT22;21895;47.072;15.132;2024-01-10T07:22:29;-3.80;99.90
20929;DHT22;21895;47.072;15.132;2024-01-10T07:24:56;-3.70;99.90
20929;DHT22;21895;47.072;15.132;2024-01-10T07:27:23;-3.70;99.90
20929;DHT22;21895;47.072;15.132;2024-01-10T07:29:50;-3.50;99.90
20929;DHT22;21895;47.072;15.132;2024-01-10T07:32:17;-3.50;99.90
20929;DHT22;21895;47.072;15.132;2024-01-10T07:34:43;-3.40;99.90
20929;DHT22;21895;47.072;15.132;2024-01-10T07:37:10;-3.30;99.90
20929;DHT22;21895;47.072;15.132;2024-01-10T07:39:37;-3.20;99.90
20929;DHT22;21895;47.072;15.132;2024-01-10T07:42:04;-3.20;99.90
20929;DHT22;21895;47.072;15.132;2024-01-10T07:44:30;-3.00;99.90
20929;DHT22;21895;47.072;15.132;2024-01-10T07:46:57;-3.00;99.90
20929;DHT22;21895;47.072;15.132;2024-01-10T07:49:24;-3.00;99.90
20929;DHT22;21895;47.072;15.132;2024-01-10T07:51:51;-2.70;99.90
20929;DHT22;21895;47.072;15.132;2024-01-10T07:54:17;-2.50;99.90
20929;DHT22;21895;47.072;15.132;2024-01-10T07:56:44;-2.30;99.90
20929;DHT22;21895;47.072;15.132;2024-01-10T07:59:11;-2.30;99.90
20929;DHT22;21895;47.072;15.132;2024-01-10T08:01:43;-2.30;99.90
20929;DHT22;21895;47.072;15.132;2024-01-10T08:04:20;-2.20;99.90
20929;DHT22;21895;47.072;15.132;2024-01-10T08:06:46;-2.00;99.90
20929;DHT22;21895;47.072;15.132;2024-01-10T08:09:13;-1.90;99.90
20929;DHT22;21895;47.072;15.132;2024-01-10T08:11:40;-1.80;99.90
20929;DHT22;21895;47.072;15.132;2024-01-10T08:14:06;-1.90;99.90
20929;DHT22;21895;47.072;15.132;2024-01-10T08:16:33;-1.90;99.90
20929;DHT22;21895;47.072;15.132;2024-01-10T08:19:00;-1.70;99.90
20929;DHT22;21895;47.072;15.132;2024-01-10T08:21:27;-1.60;99.90
20929;DHT22;21895;47.072;15.132;2024-01-10T08:23:54;-1.50;99.90
20929;DHT22;21895;47.072;15.132;2024-01-10T08:26:20;-1.40;99.90
20929;DHT22;21895;47.072;15.132;2024-01-10T08:28:47;-1.30;99.90
20929;DHT22;21895;47.072;15.132;2024-01-10T08:31:16;-1.20;99.90
20929;DHT22;21895;47.072;15.132;2024-01-10T08:33:43;-1.10;99.90
20929;DHT22;21895;47.072;15.132;2024-01-10T08:36:11;-0.80;99.90
20929;DHT22;21895;47.072;15.132;2024-01-10T08:38:39;-0.80;99.90
20929;DHT22;21895;47.072;15.132;2024-01-10T08:41:07;-0.90;99.90
20929;DHT22;21895;47.072;15.132;2024-01-10T08:43:38;-0.80;99.90
20929;DHT22;21895;47.072;15.132;2024-01-10T08:46:05;-0.80;99.90
20929;DHT22;21895;47.072;15.132;2024-01-10T08:48:33;-0.70;99.90
20929;DHT22;21895;47.072;15.132;2024-01-10T08:50:59;-0.70;99.90
20929;DHT22;21895;47.072;15.132;2024-01-10T08:53:26;-0.70;99.90
20929;DHT22;21895;47.072;15.132;2024-01-10T08:55:54;-0.70;99.90
20929;DHT22;21895;47.072;15.132;2024-01-10T08:58:22;-0.50;99.90
20929;DHT22;21895;47.072;15.132;2024-01-10T09:00:48;-0.50;99.90
20929;DHT22;21895;47.072;15.132;2024-01-10T09:03:15;-0.30;99.90
20929;DHT22;21895;47.072;15.132;2024-01-10T09:05:42;-0.20;99.50
20929;DHT22;21895;47.072;15.132;2024-01-10T09:08:19;0.00;99.00
20929;DHT22;21895;47.072;15.132;2024-01-10T09:10:45;0.00;99.00
20929;DHT22;21895;47.072;15.132;2024-01-10T09:13:12;0.00;98.80
20929;DHT22;21895;47.072;15.132;2024-01-10T09:15:39;0.10;98.50
20929;DHT22;21895;47.072;15.132;2024-01-10T09:18:06;0.30;98.40
20929;DHT22;21895;47.072;15.132;2024-01-10T09:20:34;0.50;98.80
20929;DHT22;21895;47.072;15.132;2024-01-10T09:23:02;0.50;98.40
20929;DHT22;21895;47.072;15.132;2024-01-10T09:25:31;0.50;98.10
20929;DHT22;21895;47.072;15.132;2024-01-10T09:27:58;0.60;98.00
20929;DHT22;21895;47.072;15.132;2024-01-10T09:30:25;0.60;97.10
20929;DHT22;21895;47.072;15.132;2024-01-10T09:32:52;0.60;97.40
20929;DHT22;21895;47.072;15.132;2024-01-10T09:35:18;0.70;97.10
20929;DHT22;21895;47.072;15.132;2024-01-10T09:37:45;0.80;96.70
20929;DHT22;21895;47.072;15.132;2024-01-10T09:40:14;0.90;96.80
20929;DHT22;21895;47.072;15.132;2024-01-10T09:42:45;1.00;96.90
20929;DHT22;21895;47.072;15.132;2024-01-10T09:45:17;1.10;96.40
20929;DHT22;21895;47.072;15.132;2024-01-10T09:47:52;1.10;96.20
20929;DHT22;21895;47.072;15.132;2024-01-10T09:50:22;1.20;96.90
20929;DHT22;21895;47.072;15.132;2024-01-10T09:52:53;1.30;96.60
20929;DHT22;21895;47.072;15.132;2024-01-10T09:55:26;1.40;96.50
20929;DHT22;21895;47.072;15.132;2024-01-10T09:58:08;1.40;96.30
20929;DHT22;21895;47.072;15.132;2024-01-10T10:00:36;1.60;95.70
20929;DHT22;21895;47.072;15.132;2024-01-10T10:03:07;1.60;95.30
20929;DHT22;21895;47.072;15.132;2024-01-10T10:05:37;1.60;95.00
20929;DHT22;21895;47.072;15.132;2024-01-10T10:08:09;1.60;95.40
20929;DHT22;21895;47.072;15.132;2024-01-10T10:10:37;1.60;94.80
20929;DHT22;21895;47.072;15.132;2024-01-10T10:13:09;1.70;94.70
20929;DHT22;21895;47.072;15.132;2024-01-10T10:15:41;1.70;94.70
20929;DHT22;21895;47.072;15.132;2024-01-10T10:18:13;1.70;94.20
20929;DHT22;21895;47.072;15.132;2024-01-10T10:20:41;1.80;94.30
20929;DHT22;21895;47.072;15.132;2024-01-10T10:23:11;1.80;94.00
20929;DHT22;21895;47.072;15.132;2024-01-10T10:25:45;1.80;93.80
20929;DHT22;21895;47.072;15.132;2024-01-10T10:28:13;2.00;93.00
20929;DHT22;21895;47.072;15.132;2024-01-10T10:30:55;2.00;93.60
20929;DHT22;21895;47.072;15.132;2024-01-10T10:33:22;2.00;93.50
20929;DHT22;21895;47.072;15.132;2024-01-10T10:35:50;2.10;93.00
20929;DHT22;21895;47.072;15.132;2024-01-10T10:38:22;2.10;92.90
20929;DHT22;21895;47.072;15.132;2024-01-10T10:40:48;2.20;92.80
20929;DHT22;21895;47.072;15.132;2024-01-10T10:43:19;2.20;92.50
20929;DHT22;21895;47.072;15.132;2024-01-10T10:45:48;2.30;92.40
20929;DHT22;21895;47.072;15.132;2024-01-10T10:48:19;2.20;93.00
20929;DHT22;21895;47.072;15.132;2024-01-10T10:51:15;2.30;92.40
20929;DHT22;21895;47.072;15.132;2024-01-10T10:53:49;2.30;92.40
20929;DHT22;21895;47.072;15.132;2024-01-10T10:56:17;2.20;92.60
20929;DHT22;21895;47.072;15.132;2024-01-10T10:58:44;2.30;92.10
20929;DHT22;21895;47.072;15.132;2024-01-10T11:01:12;2.40;92.00
20929;DHT22;21895;47.072;15.132;2024-01-10T11:03:41;2.50;91.90
20929;DHT22;21895;47.072;15.132;2024-01-10T11:06:10;2.70;92.20
20929;DHT22;21895;47.072;15.132;2024-01-10T11:08:42;2.70;91.70
20929;DHT22;21895;47.072;15.132;2024-01-10T11:24:49;2.90;91.60
20929;DHT22;21895;47.072;15.132;2024-01-10T11:27:16;3.10;91.60
20929;DHT22;21895;47.072;15.132;2024-01-10T11:29:46;3.20;91.10
20929;DHT22;21895;47.072;15.132;2024-01-10T11:32:18;3.20;91.20
20929;DHT22;21895;47.072;15.132;2024-01-10T11:34:59;3.20;91.10
20929;DHT22;21895;47.072;15.132;2024-01-10T11:37:39;3.20;90.80
20929;DHT22;21895;47.072;15.132;2024-01-10T11:40:12;3.20;91.30
20929;DHT22;21895;47.072;15.132;2024-01-10T11:42:43;3.20;91.10
20929;DHT22;21895;47.072;15.132;2024-01-10T11:45:10;3.20;90.40
20929;DHT22;21895;47.072;15.132;2024-01-10T11:48:02;3.20;90.70
20929;DHT22;21895;47.072;15.132;2024-01-10T11:50:29;3.10;90.60
20929;DHT22;21895;47.072;15.132;2024-01-10T11:52:58;3.20;91.20
20929;DHT22;21895;47.072;15.132;2024-01-10T11:55:50;3.30;91.10
20929;DHT22;21895;47.072;15.132;2024-01-10T11:58:20;3.40;91.00
20929;DHT22;21895;47.072;15.132;2024-01-10T12:00:50;3.30;91.20
20929;DHT22;21895;47.072;15.132;2024-01-10T12:03:17;3.40;91.20
20929;DHT22;21895;47.072;15.132;2024-01-10T12:05:45;3.40;91.20
20929;DHT22;21895;47.072;15.132;2024-01-10T12:08:12;3.50;92.00
20929;DHT22;21895;47.072;15.132;2024-01-10T12:10:38;3.50;91.80
20929;DHT22;21895;47.072;15.132;2024-01-10T12:13:05;3.40;91.60
20929;DHT22;21895;47.072;15.132;2024-01-10T12:15:32;3.50;91.60
20929;DHT22;21895;47.072;15.132;2024-01-10T12:18:00;3.60;91.40
20929;DHT22;21895;47.072;15.132;2024-01-10T12:20:27;3.60;91.60
20929;DHT22;21895;47.072;15.132;2024-01-10T12:22:54;3.60;91.10
20929;DHT22;21895;47.072;15.132;2024-01-10T12:25:21;3.60;91.20
20929;DHT22;21895;47.072;15.132;2024-01-10T12:27:48;3.60;91.50
20929;DHT22;21895;47.072;15.132;2024-01-10T12:30:15;3.60;91.00
20929;DHT22;21895;47.072;15.132;2024-01-10T12:32:42;3.60;91.20
20929;DHT22;21895;47.072;15.132;2024-01-10T12:35:09;3.50;90.60
20929;DHT22;21895;47.072;15.132;2024-01-10T12:37:36;3.50;90.80
20929;DHT22;21895;47.072;15.132;2024-01-10T12:40:03;3.50;90.40
20929;DHT22;21895;47.072;15.132;2024-01-10T12:42:35;3.40;90.30
20929;DHT22;21895;47.072;15.132;2024-01-10T12:45:02;3.40;90.30
20929;DHT22;21895;47.072;15.132;2024-01-10T12:47:30;3.40;90.70
20929;DHT22;21895;47.072;15.132;2024-01-10T12:49:57;3.40;90.30
20929;DHT22;21895;47.072;15.132;2024-01-10T12:52:23;3.40;90.20
20929;DHT22;21895;47.072;15.132;2024-01-10T12:54:51;3.30;90.30
20929;DHT22;21895;47.072;15.132;2024-01-10T12:57:18;3.30;90.40
20929;DHT22;21895;47.072;15.132;2024-01-10T12:59:45;3.30;91.10
20929;DHT22;21895;47.072;15.132;2024-01-10T13:02:11;3.30;90.80
20929;DHT22;21895;47.072;15.132;2024-01-10T13:04:38;3.30;90.80
20929;DHT22;21895;47.072;15.132;2024-01-10T13:07:05;3.30;91.30
20929;DHT22;21895;47.072;15.132;2024-01-10T13:09:31;3.20;91.00
20929;DHT22;21895;47.072;15.132;2024-01-10T13:12:00;3.20;91.00
20929;DHT22;21895;47.072;15.132;2024-01-10T13:14:27;3.20;91.10
20929;DHT22;21895;47.072;15.132;2024-01-10T13:16:53;3.20;91.10
20929;DHT22;21895;47.072;15.132;2024-01-10T13:19:26;3.20;91.10
20929;DHT22;21895;47.072;15.132;2024-01-10T13:21:52;3.10;91.30
20929;DHT22;21895;47.072;15.132;2024-01-10T13:24:19;3.20;90.80
20929;DHT22;21895;47.072;15.132;2024-01-10T13:26:46;3.20;90.90
20929;DHT22;21895;47.072;15.132;2024-01-10T13:29:14;3.20;90.90
20929;DHT22;21895;47.072;15.132;2024-01-10T13:31:41;3.20;91.60
20929;DHT22;21895;47.072;15.132;2024-01-10T13:34:08;3.20;90.70
20929;DHT22;21895;47.072;15.132;2024-01-10T13:36:37;3.20;90.40
20929;DHT22;21895;47.072;15.132;2024-01-10T13:39:03;3.20;91.00
20929;DHT22;21895;47.072;15.132;2024-01-10T13:41:30;3.20;90.90
20929;DHT22;21895;47.072;15.132;2024-01-10T13:43:56;3.30;91.00
20929;DHT22;21895;47.072;15.132;2024-01-10T13:46:23;3.30;91.10
20929;DHT22;21895;47.072;15.132;2024-01-10T13:48:50;3.30;90.80
20929;DHT22;21895;47.072;15.132;2024-01-10T13:51:16;3.20;91.00
20929;DHT22;21895;47.072;15.132;2024-01-10T13:53:43;3.10;91.10
20929;DHT22;21895;47.072;15.132;2024-01-10T13:56:10;3.10;91.10
20929;DHT22;21895;47.072;15.132;2024-01-10T13:58:38;3.10;91.30
20929;DHT22;21895;47.072;15.132;2024-01-10T14:01:04;3.10;91.40
20929;DHT22;21895;47.072;15.132;2024-01-10T14:03:31;3.00;91.30
20929;DHT22;21895;47.072;15.132;2024-01-10T14:05:59;3.00;91.70
20929;DHT22;21895;47.072;15.132;2024-01-10T14:08:26;2.90;91.80
20929;DHT22;21895;47.072;15.132;2024-01-10T14:10:53;2.90;91.80
20929;DHT22;21895;47.072;15.132;2024-01-10T14:13:19;2.80;92.00
20929;DHT22;21895;47.072;15.132;2024-01-10T14:15:46;2.90;92.20
20929;DHT22;21895;47.072;15.132;2024-01-10T14:18:13;2.90;92.00
20929;DHT22;21895;47.072;15.132;2024-01-10T14:20:39;2.80;92.30
20929;DHT22;21895;47.072;15.132;2024-01-10T14:23:08;2.80;92.20
20929;DHT22;21895;47.072;15.132;2024-01-10T14:25:35;2.80;92.20
20929;DHT22;21895;47.072;15.132;2024-01-10T14:28:02;2.70;92.20
20929;DHT22;21895;47.072;15.132;2024-01-10T14:30:29;2.70;92.70
20929;DHT22;21895;47.072;15.132;2024-01-10T14:32:55;2.60;92.70
20929;DHT22;21895;47.072;15.132;2024-01-10T14:35:22;2.60;93.00
20929;DHT22;21895;47.072;15.132;2024-01-10T14:37:50;2.50;93.20
20929;DHT22;21895;47.072;15.132;2024-01-10T14:40:17;2.50;93.30
20929;DHT22;21895;47.072;15.132;2024-01-10T14:42:43;2.40;93.20
20929;DHT22;21895;47.072;15.132;2024-01-10T14:45:11;2.30;93.30
20929;DHT22;21895;47.072;15.132;2024-01-10T14:47:38;2.30;93.30
20929;DHT22;21895;47.072;15.132;2024-01-10T14:50:05;2.30;93.30
20929;DHT22;21895;47.072;15.132;2024-01-10T14:52:33;2.20;93.30
20929;DHT22;21895;47.072;15.132;2024-01-10T14:54:59;2.20;93.60
20929;DHT22;21895;47.072;15.132;2024-01-10T14:57:26;2.10;94.10
20929;DHT22;21895;47.072;15.132;2024-01-10T14:59:53;2.00;94.10
20929;DHT22;21895;47.072;15.132;2024-01-10T15:02:19;1.90;94.20
20929;DHT22;21895;47.072;15.132;2024-01-10T15:04:47;1.80;94.40
20929;DHT22;21895;47.072;15.132;2024-01-10T15:07:14;1.70;94.50
20929;DHT22;21895;47.072;15.132;2024-01-10T15:09:45;1.60;94.70
20929;DHT22;21895;47.072;15.132;2024-01-10T15:12:12;1.50;94.70
20929;DHT22;21895;47.072;15.132;2024-01-10T15:14:38;1.50;95.20
20929;DHT22;21895;47.072;15.132;2024-01-10T15:17:07;1.40;95.20
20929;DHT22;21895;47.072;15.132;2024-01-10T15:19:34;1.30;95.70
20929;DHT22;21895;47.072;15.132;2024-01-10T15:22:02;1.20;95.60
20929;DHT22;21895;47.072;15.132;2024-01-10T15:24:29;1.10;96.30
20929;DHT22;21895;47.072;15.132;2024-01-10T15:26:56;0.90;97.60
20929;DHT22;21895;47.072;15.132;2024-01-10T15:29:30;0.80;97.60
20929;DHT22;21895;47.072;15.132;2024-01-10T15:31:57;0.60;98.00
20929;DHT22;21895;47.072;15.132;2024-01-10T15:34:24;0.50;98.40
20929;DHT22;21895;47.072;15.132;2024-01-10T15:36:52;0.40;99.50
20929;DHT22;21895;47.072;15.132;2024-01-10T15:39:18;0.30;99.90
20929;DHT22;21895;47.072;15.132;2024-01-10T15:41:49;0.10;99.90